Time;durP1;ratioP1;P1;durP2;ratioP2;P2;SDS_P1;SDS_P2;PMS_P1;PMS_P2;Temp;Humidity;BMP_temperature;BMP_pressure;BME280_temperature;BME280_humidity;BME280_pressure;Samples;Min_cycle;Max_cycle;Signal;HPM_P1;HPM_P2
2022/02/06 00:01:12;;;;;;;21.30;9.40;;;;;;;-0.26;82.57;98561.09;106171;1277;137228;-72
2022/02/06 00:03:41;;;;;;;24.10;10.70;;;;;;;-0.27;82.58;98560.12;106148;1277;22554;-73
2022/02/06 00:06:07;;;;;;;22.80;10.30;;;;;;;-0.29;82.75;98557.93;105965;1275;136905;-71
2022/02/06 00:08:37;;;;;;;21.70;10.10;;;;;;;-0.31;82.67;98550.58;106121;1276;22548;-73
2022/02/06 00:11:18;;;;;;;21.60;9.20;;;;;;;-0.30;82.43;98546.83;106166;1278;138049;-73
2022/02/06 00:13:44;;;;;;;23.60;9.90;;;;;;;-0.30;82.55;98547.65;106190;1276;25384;-71
2022/02/06 00:16:11;;;;;;;24.60;10.50;;;;;;;-0.31;82.37;98549.38;106143;1276;24254;-69
2022/02/06 00:18:39;;;;;;;20.10;9.60;;;;;;;-0.31;82.34;98545.50;106191;1277;137958;-70
2022/02/06 00:21:11;;;;;;;21.70;10.10;;;;;;;-0.33;82.37;98545.36;106084;1277;22551;-71
2022/02/06 00:23:38;;;;;;;25.30;10.80;;;;;;;-0.34;82.22;98536.30;106382;1277;137922;-71
2022/02/06 00:26:20;;;;;;;34.00;12.20;;;;;;;-0.32;82.32;98536.70;106481;1277;25257;-71
2022/02/06 00:28:59;;;;;;;34.30;12.00;;;;;;;-0.32;82.03;98533.97;106410;1277;23384;-71
2022/02/06 00:39:41;;;;;;;20.10;9.30;;;;;;;-0.36;81.94;98521.40;106450;1276;25420;-71
2022/02/06 00:42:08;;;;;;;21.10;10.00;;;;;;;-0.38;81.84;98520.20;106236;1277;138190;-71
2022/02/06 00:44:35;;;;;;;22.90;10.20;;;;;;;-0.39;82.09;98519.53;106196;1277;22665;-71
2022/02/06 00:47:03;;;;;;;19.70;8.90;;;;;;;-0.37;81.97;98518.36;106301;1277;22583;-71
2022/02/06 00:49:31;;;;;;;20.40;10.10;;;;;;;-0.37;82.08;98514.69;106157;1277;138455;-71
2022/02/06 00:52:10;;;;;;;24.50;12.40;;;;;;;-0.36;81.99;98513.05;106433;1277;25334;-71
2022/02/06 00:54:36;;;;;;;24.20;11.00;;;;;;;-0.37;82.01;98508.13;106158;1277;137516;-71
2022/02/06 00:57:03;;;;;;;26.60;12.10;;;;;;;-0.38;81.75;98505.21;106340;1277;22600;-74
2022/02/06 00:59:30;;;;;;;23.80;11.10;;;;;;;-0.39;81.72;98500.80;106281;1275;137327;-71
2022/02/06 01:01:56;;;;;;;22.20;10.40;;;;;;;-0.40;81.73;98493.98;106112;1277;25849;-71
2022/02/06 01:04:22;;;;;;;22.00;9.50;;;;;;;-0.39;81.52;98485.83;106448;1277;22679;-72
2022/02/06 01:06:48;;;;;;;20.40;8.80;;;;;;;-0.38;81.35;98485.80;105975;1276;137230;-71
2022/02/06 01:09:17;;;;;;;15.60;7.60;;;;;;;-0.37;81.64;98479.96;106074;1276;24378;-71
2022/02/06 01:11:43;;;;;;;18.30;7.10;;;;;;;-0.37;81.63;98475.33;106515;1276;137296;-73
2022/02/06 01:14:39;;;;;;;19.10;8.10;;;;;;;-0.38;81.26;98476.83;106232;1274;23762;-72
2022/02/06 01:17:22;;;;;;;14.70;7.50;;;;;;;-0.40;81.48;98473.86;106850;1274;22565;-71
2022/02/06 01:20:05;;;;;;;13.50;7.10;;;;;;;-0.43;80.97;98469.43;106565;1274;136776;-70
2022/02/06 01:22:35;;;;;;;16.10;7.30;;;;;;;-0.46;81.04;98467.52;106770;1274;25260;-74
2022/02/06 01:25:09;;;;;;;18.50;7.10;;;;;;;-0.46;81.13;98466.86;106711;1274;137791;-72
2022/02/06 01:27:54;;;;;;;16.30;6.80;;;;;;;-0.46;81.16;98464.48;106990;1274;22560;-71
2022/02/06 01:33:12;;;;;;;18.00;7.80;;;;;;;-0.44;80.95;98450.27;106491;1274;22714;-71
2022/02/06 01:35:47;;;;;;;16.50;7.50;;;;;;;-0.46;81.01;98444.03;106556;1274;137489;-71
2022/02/06 01:38:27;;;;;;;17.20;8.10;;;;;;;-0.49;81.00;98438.14;106597;1277;22550;-72
2022/02/06 01:41:03;;;;;;;14.10;7.00;;;;;;;-0.51;80.86;98437.46;106353;1277;22589;-73
2022/02/06 01:43:44;;;;;;;13.90;6.30;;;;;;;-0.52;80.95;98433.09;106638;1277;137589;-71
2022/02/06 01:57:26;;;;;;;15.30;6.60;;;;;;;-0.45;81.06;98411.64;106305;1275;24089;-70
2022/02/06 02:14:27;;;;;;;19.50;8.80;;;;;;;-0.34;81.33;98373.38;106037;1277;137404;-73
2022/02/06 02:32:23;;;;;;;12.60;5.10;;;;;;;-0.39;81.27;98342.13;106061;1277;137280;-71
2022/02/06 02:48:02;;;;;;;15.90;6.40;;;;;;;-0.36;81.43;98327.20;106016;1276;137262;-73
2022/02/06 02:50:32;;;;;;;13.30;6.30;;;;;;;-0.33;80.97;98330.79;106066;1277;22759;-74
2022/02/06 02:53:13;;;;;;;14.20;5.60;;;;;;;-0.32;81.08;98334.36;106435;1277;22571;-73
2022/02/06 02:58:27;;;;;;;10.20;5.60;;;;;;;-0.31;80.82;98328.13;106141;1277;22551;-71
2022/02/06 03:01:05;;;;;;;12.70;5.90;;;;;;;-0.30;80.73;98322.93;105603;1278;137912;-73
2022/02/06 03:03:35;;;;;;;11.20;6.40;;;;;;;-0.28;80.30;98320.71;106057;1276;22577;-73
2022/02/06 03:06:04;;;;;;;12.90;5.70;;;;;;;-0.26;80.62;98317.29;105920;1276;137352;-73
2022/02/06 03:08:33;;;;;;;13.30;6.50;;;;;;;-0.24;80.68;98317.17;106163;1276;25404;-72
2022/02/06 03:11:03;;;;;;;14.80;5.80;;;;;;;-0.24;80.03;98307.88;106199;1277;24218;-72
2022/02/06 03:13:38;;;;;;;12.40;6.70;;;;;;;-0.24;80.26;98306.64;106132;1274;139600;-71
2022/02/06 03:18:51;;;;;;;14.30;6.60;;;;;;;-0.26;80.12;98301.33;106031;1277;137362;-71
2022/02/06 03:21:21;;;;;;;14.30;7.10;;;;;;;-0.26;80.17;98300.15;106006;1277;30439;-71
2022/02/06 03:23:53;;;;;;;15.70;6.60;;;;;;;-0.25;80.07;98294.98;106158;1277;22642;-73
2022/02/06 03:26:22;;;;;;;12.60;6.30;;;;;;;-0.21;80.23;98287.78;106091;1277;137031;-73
2022/02/06 03:28:50;;;;;;;10.30;6.20;;;;;;;-0.18;80.26;98287.42;106094;1277;24267;-73
2022/02/06 03:31:16;;;;;;;13.00;6.10;;;;;;;-0.16;80.32;98285.41;106439;1276;137116;-73
2022/02/06 03:33:43;;;;;;;14.80;7.00;;;;;;;-0.15;80.08;98284.21;106177;1276;22864;-72
2022/02/06 03:36:10;;;;;;;13.30;5.90;;;;;;;-0.15;80.32;98278.90;105973;1274;137501;-72
2022/02/06 03:38:36;;;;;;;12.20;6.50;;;;;;;-0.16;80.01;98277.94;106146;1276;24766;-72
2022/02/06 03:41:07;;;;;;;12.90;5.80;;;;;;;-0.17;80.08;98278.98;106258;1276;22547;-72
2022/02/06 03:46:44;;;;;;;9.20;4.60;;;;;;;-0.15;79.86;98271.17;106411;1277;22561;-70
2022/02/06 03:49:26;;;;;;;12.10;5.80;;;;;;;-0.13;80.08;98261.29;106280;1277;137212;-71
2022/02/06 03:51:52;;;;;;;11.90;5.30;;;;;;;-0.11;80.35;98262.30;106430;1275;22578;-71
2022/02/06 03:54:18;;;;;;;10.70;5.20;;;;;;;-0.09;80.14;98255.69;106444;1277;137450;-71
2022/02/06 03:56:47;;;;;;;11.40;4.70;;;;;;;-0.09;79.97;98253.16;106347;1274;25334;-71
2022/02/06 03:59:13;;;;;;;11.30;5.20;;;;;;;-0.08;79.85;98246.61;106059;1278;24378;-71
2022/02/06 04:01:54;;;;;;;10.90;4.10;;;;;;;-0.05;79.71;98241.63;106126;1276;137554;-71
2022/02/06 04:04:20;;;;;;;11.10;4.40;;;;;;;-0.03;79.97;98235.86;106100;1276;23130;-71
2022/02/06 04:06:47;;;;;;;10.40;4.10;;;;;;;-0.01;79.87;98232.27;106208;1276;137245;-71
2022/02/06 04:09:18;;;;;;;9.10;4.00;;;;;;;0.01;80.11;98226.15;106238;1276;25224;-72
2022/02/06 04:11:49;;;;;;;11.00;4.70;;;;;;;0.02;79.87;98221.36;106281;1277;25259;-72
2022/02/06 04:14:26;;;;;;;9.20;3.70;;;;;;;0.02;79.74;98213.89;106324;1277;137314;-72
2022/02/06 04:16:55;;;;;;;8.20;3.80;;;;;;;0.02;79.72;98208.34;106165;1277;22697;-72
2022/02/06 04:19:26;;;;;;;7.30;3.40;;;;;;;0.04;79.76;98200.58;106028;1277;137698;-72
2022/02/06 04:21:54;;;;;;;8.70;3.30;;;;;;;0.06;79.73;98199.80;106169;1277;24078;-72
2022/02/06 04:24:21;;;;;;;10.30;3.70;;;;;;;0.08;79.64;98194.59;106186;1277;137484;-72
2022/02/06 04:26:48;;;;;;;9.50;3.60;;;;;;;0.10;79.63;98191.08;106099;1278;24264;-72
2022/02/06 04:29:14;;;;;;;11.00;3.50;;;;;;;0.12;79.55;98195.02;106251;1277;24312;-70
2022/02/06 04:31:42;;;;;;;6.80;3.80;;;;;;;0.13;79.63;98192.89;106214;1277;137146;-72
2022/02/06 04:34:09;;;;;;;7.30;2.70;;;;;;;0.14;79.48;98189.70;106322;1276;22560;-71
2022/02/06 04:36:45;;;;;;;4.30;2.90;;;;;;;0.18;79.53;98184.84;106238;1277;137832;-71
2022/02/06 04:42:19;;;;;;;4.60;2.60;;;;;;;0.26;79.48;98171.71;106048;1276;23109;-71
2022/02/06 04:55:44;;;;;;;4.40;2.50;;;;;;;0.43;79.13;98152.19;106249;1276;138221;-71
2022/02/06 05:30:52;;;;;;;4.50;1.90;;;;;;;1.07;80.70;98127.10;106191;1277;138471;-72
2022/02/06 05:33:19;;;;;;;5.30;1.90;;;;;;;1.10;81.26;98128.53;106158;1278;23084;-71
2022/02/06 05:35:45;;;;;;;3.60;1.70;;;;;;;1.10;81.63;98125.11;106141;1278;23958;-71
2022/02/06 05:38:11;;;;;;;6.40;2.00;;;;;;;1.09;82.16;98119.86;105958;1276;137219;-71
2022/02/06 05:40:37;;;;;;;4.40;2.40;;;;;;;1.08;82.21;98111.08;106439;1277;22561;-71
2022/02/06 05:43:04;;;;;;;5.20;1.90;;;;;;;1.08;82.58;98114.82;106035;1277;137661;-71
2022/02/06 05:45:30;;;;;;;3.90;2.00;;;;;;;1.08;83.04;98109.79;106180;1277;22553;-71
2022/02/06 05:47:57;;;;;;;4.30;2.30;;;;;;;1.07;83.31;98110.48;106085;1277;25376;-71
2022/02/06 05:50:23;;;;;;;5.00;2.80;;;;;;;1.05;83.42;98109.30;106281;1275;136862;-71
2022/02/06 05:52:50;;;;;;;5.70;3.20;;;;;;;0.99;83.56;98102.60;106072;1277;23229;-72
2022/02/06 05:55:17;;;;;;;6.20;3.40;;;;;;;0.92;83.86;98103.77;106063;1277;137618;-71
2022/02/06 05:57:44;;;;;;;6.70;2.80;;;;;;;0.87;84.26;98105.83;106414;1277;24375;-72
2022/02/06 06:00:25;;;;;;;5.80;2.50;;;;;;;0.82;84.81;98106.12;106046;1277;137247;-72
2022/02/06 06:02:51;;;;;;;5.90;3.30;;;;;;;0.75;84.89;98101.76;106567;1276;22565;-72
2022/02/06 06:05:19;;;;;;;8.90;3.90;;;;;;;0.68;85.47;98098.06;106365;1278;22695;-72
2022/02/06 06:07:45;;;;;;;12.30;6.20;;;;;;;0.62;85.72;98096.07;106187;1277;138143;-72
2022/02/06 06:10:12;;;;;;;10.10;4.40;;;;;;;0.58;86.15;98094.13;106293;1277;22553;-72
2022/02/06 06:12:40;;;;;;;5.70;3.10;;;;;;;0.54;86.48;98092.39;106385;1278;137799;-71
2022/02/06 06:15:21;;;;;;;8.20;4.20;;;;;;;0.49;86.83;98092.64;106105;1277;22618;-71
2022/02/06 06:17:47;;;;;;;7.50;3.80;;;;;;;0.45;86.79;98088.88;105958;1278;23736;-74
2022/02/06 06:20:17;;;;;;;6.50;3.10;;;;;;;0.43;87.00;98084.83;106259;1275;137643;-73
2022/02/06 06:22:43;;;;;;;6.30;3.20;;;;;;;0.41;87.40;98081.86;106294;1277;25373;-72
2022/02/06 06:25:27;;;;;;;5.50;3.20;;;;;;;0.37;87.70;98067.70;106040;1276;137339;-72
2022/02/06 06:27:55;;;;;;;6.10;2.70;;;;;;;0.38;87.77;98063.29;106140;1277;24238;-72
2022/02/06 06:30:21;;;;;;;5.80;2.80;;;;;;;0.38;87.70;98061.67;106172;1277;22590;-72
2022/02/06 06:32:48;;;;;;;5.00;3.10;;;;;;;0.39;87.81;98063.92;106539;1276;137421;-74
2022/02/06 06:35:16;;;;;;;5.60;3.80;;;;;;;0.41;87.82;98059.20;106119;1279;23918;-72
2022/02/06 06:37:42;;;;;;;17.60;3.10;;;;;;;0.43;87.87;98059.98;106342;1277;137204;-72
2022/02/06 06:40:09;;;;;;;7.10;3.40;;;;;;;0.46;87.91;98057.86;106504;1278;22550;-72
2022/02/06 06:42:36;;;;;;;7.00;3.30;;;;;;;0.47;88.12;98055.06;106181;1277;136933;-72
2022/02/06 06:45:02;;;;;;;4.40;3.20;;;;;;;0.48;88.01;98049.10;106732;1274;23125;-73
2022/02/06 06:47:28;;;;;;;7.00;4.20;;;;;;;0.49;87.82;98047.62;106708;1274;22552;-73
2022/02/06 06:49:56;;;;;;;8.40;3.20;;;;;;;0.52;87.83;98049.02;106450;1274;137743;-73
2022/02/06 06:52:22;;;;;;;9.00;4.60;;;;;;;0.55;87.69;98046.54;106326;1277;22800;-72
2022/02/06 06:54:58;;;;;;;6.40;3.60;;;;;;;0.56;87.75;98045.88;106849;1275;137582;-73
2022/02/06 06:57:30;;;;;;;6.80;4.00;;;;;;;0.56;87.89;98050.87;106093;1277;24218;-73
2022/02/06 07:04:57;;;;;;;8.70;5.60;;;;;;;0.61;87.85;98043.69;107081;1274;22564;-72
2022/02/06 07:07:27;;;;;;;8.80;5.10;;;;;;;0.64;87.59;98046.57;106785;1274;137178;-73
2022/02/06 07:09:53;;;;;;;8.60;4.50;;;;;;;0.66;87.67;98045.98;106142;1277;22563;-74
2022/02/06 07:12:20;;;;;;;7.80;4.50;;;;;;;0.67;87.68;98039.21;106514;1277;22580;-74
2022/02/06 07:14:48;;;;;;;9.60;3.70;;;;;;;0.70;87.42;98030.44;106241;1275;138141;-72
2022/02/06 07:17:16;;;;;;;6.80;3.90;;;;;;;0.74;87.20;98026.52;106422;1277;22815;-72
2022/02/06 07:19:43;;;;;;;8.50;3.80;;;;;;;0.79;86.95;98020.86;106181;1276;137707;-73
2022/02/06 07:22:15;;;;;;;6.40;4.10;;;;;;;0.85;86.88;98014.40;106225;1274;25360;-72
2022/02/06 07:24:42;;;;;;;7.60;3.90;;;;;;;0.90;86.47;98011.09;106434;1276;137408;-73
2022/02/06 07:27:21;;;;;;;9.60;5.40;;;;;;;0.95;86.58;98009.52;106513;1274;22661;-72
2022/02/06 07:29:48;;;;;;;7.90;4.60;;;;;;;1.01;86.11;98003.95;106388;1277;24226;-73
2022/02/06 07:32:14;;;;;;;6.30;3.90;;;;;;;1.09;85.84;98006.21;106438;1277;137600;-74
2022/02/06 07:34:41;;;;;;;8.20;3.90;;;;;;;1.17;85.54;98001.14;106182;1276;24293;-73
2022/02/06 07:37:07;;;;;;;5.50;3.40;;;;;;;1.24;85.38;97995.40;106174;1277;136954;-73
2022/02/06 07:39:34;;;;;;;4.50;2.80;;;;;;;1.30;85.02;97986.34;106590;1274;23299;-73
2022/02/06 07:42:02;;;;;;;4.60;3.20;;;;;;;1.37;84.88;97986.20;106347;1276;22611;-73
2022/02/06 07:44:28;;;;;;;4.80;2.90;;;;;;;1.43;84.60;97984.46;106540;1274;137608;-73
2022/02/06 07:47:02;;;;;;;5.40;3.20;;;;;;;1.50;84.28;97979.88;106436;1277;22623;-75
2022/02/06 07:49:28;;;;;;;5.00;3.00;;;;;;;1.60;84.38;97979.84;105908;1277;138072;-72
2022/02/06 07:51:55;;;;;;;5.90;2.90;;;;;;;1.68;83.88;97979.05;106300;1277;24201;-73
2022/02/06 07:54:21;;;;;;;5.00;3.00;;;;;;;1.75;83.57;97970.73;106805;1274;22891;-73
2022/02/06 07:56:47;;;;;;;6.30;3.30;;;;;;;1.78;82.48;97968.73;106227;1275;136555;-72
2022/02/06 07:59:15;;;;;;;5.20;2.90;;;;;;;1.82;82.44;97968.88;106722;1277;22526;-72
2022/02/06 08:01:42;;;;;;;6.30;3.20;;;;;;;1.87;82.17;97970.36;106653;1274;137079;-72
2022/02/06 08:04:08;;;;;;;6.20;3.00;;;;;;;1.95;82.31;97967.63;106654;1274;26577;-72
2022/02/06 08:06:34;;;;;;;6.30;2.90;;;;;;;2.01;81.85;97966.58;106133;1277;137053;-72
2022/02/06 08:09:01;;;;;;;7.00;3.00;;;;;;;2.06;81.11;97964.16;106707;1274;22553;-72
2022/02/06 08:11:27;;;;;;;8.10;3.90;;;;;;;2.11;81.08;97963.20;106098;1277;22698;-72
2022/02/06 08:14:09;;;;;;;7.70;3.30;;;;;;;2.14;80.96;97958.96;106292;1277;137270;-74
2022/02/06 08:16:35;;;;;;;4.60;2.40;;;;;;;2.18;80.56;97957.52;106131;1277;25382;-73
2022/02/06 08:19:01;;;;;;;4.80;2.70;;;;;;;2.26;80.23;97957.59;106688;1277;138011;-72
2022/02/06 08:21:28;;;;;;;5.30;2.60;;;;;;;2.32;79.78;97964.83;106485;1277;22562;-72
2022/02/06 08:23:54;;;;;;;9.10;3.40;;;;;;;2.35;79.25;97964.33;106436;1277;22746;-72
2022/02/06 08:26:24;;;;;;;8.30;3.30;;;;;;;2.37;79.56;97960.63;106093;1277;136773;-72
2022/02/06 08:28:51;;;;;;;9.00;3.00;;;;;;;2.40;79.20;97959.60;106160;1276;25490;-74
2022/02/06 08:31:19;;;;;;;5.10;2.70;;;;;;;2.43;78.95;97957.81;106466;1276;137213;-72
2022/02/06 08:33:46;;;;;;;4.60;2.50;;;;;;;2.48;78.76;97961.42;106244;1276;22684;-72
2022/02/06 08:36:12;;;;;;;6.60;2.60;;;;;;;2.54;78.54;97962.98;106450;1277;22572;-72
2022/02/06 08:38:39;;;;;;;5.70;3.00;;;;;;;2.59;78.63;97958.20;106144;1277;137070;-73
2022/02/06 08:41:05;;;;;;;4.00;2.20;;;;;;;2.63;78.82;97956.02;106207;1277;22583;-72
2022/02/06 08:43:31;;;;;;;5.10;3.30;;;;;;;2.66;78.37;97953.11;106124;1277;137821;-73
2022/02/06 08:45:58;;;;;;;4.10;2.40;;;;;;;2.67;78.15;97949.39;106336;1275;25436;-73
2022/02/06 08:48:24;;;;;;;6.30;2.90;;;;;;;2.69;78.20;97954.89;106199;1277;137565;-73
2022/02/06 08:50:50;;;;;;;4.70;2.40;;;;;;;2.68;78.00;97955.02;106175;1275;22704;-73
2022/02/06 08:53:16;;;;;;;5.80;3.70;;;;;;;2.67;78.05;97952.70;106262;1277;23370;-73
2022/02/06 08:55:48;;;;;;;4.50;2.90;;;;;;;2.62;77.54;97957.95;106535;1274;136780;-72
2022/02/06 08:58:15;;;;;;;3.70;2.30;;;;;;;2.57;77.65;97949.39;106465;1277;29497;-74
2022/02/06 09:00:43;;;;;;;5.70;2.70;;;;;;;2.52;77.67;97948.39;106315;1277;138004;-75
2022/02/06 09:03:10;;;;;;;8.10;2.90;;;;;;;2.48;77.86;97949.63;106872;1277;22555;-74
2022/02/06 09:05:37;;;;;;;4.50;2.30;;;;;;;2.45;77.75;97944.05;106830;1277;24316;-76
2022/02/06 09:08:05;;;;;;;4.60;2.60;;;;;;;2.44;78.13;97940.95;106273;1274;137110;-77
2022/02/06 09:10:32;;;;;;;4.90;2.40;;;;;;;2.44;78.06;97939.05;106427;1277;22684;-72
2022/02/06 09:12:59;;;;;;;5.10;2.30;;;;;;;2.42;78.22;97938.84;106261;1277;137053;-76
2022/02/06 09:15:25;;;;;;;5.40;2.70;;;;;;;2.39;78.65;97938.30;106176;1277;23954;-76
2022/02/06 09:17:52;;;;;;;5.20;2.20;;;;;;;2.39;79.14;97935.31;106259;1277;22544;-76
2022/02/06 09:20:20;;;;;;;4.80;2.00;;;;;;;2.37;79.14;97929.77;106141;1277;138039;-76
2022/02/06 09:22:47;;;;;;;5.90;2.60;;;;;;;2.37;79.64;97926.64;106271;1276;24280;-76
2022/02/06 09:25:14;;;;;;;5.40;2.50;;;;;;;2.36;79.95;97925.60;105919;1277;137330;-75
2022/02/06 09:27:42;;;;;;;8.80;2.90;;;;;;;2.35;80.35;97921.98;106244;1276;24252;-76
2022/02/06 09:30:12;;;;;;;6.30;3.40;;;;;;;2.32;80.50;97916.90;106204;1276;25448;-75
2022/02/06 09:37:34;;;;;;;7.80;2.90;;;;;;;2.22;80.86;97902.98;106379;1276;137194;-75
2022/02/06 09:40:01;;;;;;;6.90;3.10;;;;;;;2.22;81.16;97903.11;106242;1277;25328;-76
2022/02/06 09:42:29;;;;;;;4.80;2.60;;;;;;;2.23;81.52;97901.30;106111;1277;137046;-74
2022/02/06 09:44:58;;;;;;;9.30;3.70;;;;;;;2.25;81.41;97894.35;106242;1277;24265;-75
2022/02/06 09:47:27;;;;;;;6.60;3.70;;;;;;;2.28;81.43;97888.90;106127;1276;24333;-75
2022/02/06 09:49:53;;;;;;;;;;;;;;;2.34;81.36;97884.27;105874;1276;137730;-75
2022/02/06 09:52:28;;;;;;;5.80;3.30;;;;;;;2.41;81.31;97876.37;106546;1275;22611;-73
2022/02/06 09:55:07;;;;;;;8.00;3.70;;;;;;;2.50;81.38;97873.47;106626;1276;507826;-76
2022/02/06 09:57:51;;;;;;;6.20;2.50;;;;;;;2.57;81.09;97862.09;107010;1274;22735;-77
2022/02/06 10:00:22;;;;;;;5.30;3.00;;;;;;;2.61;80.72;97856.55;106607;1274;23120;-79
2022/02/06 10:02:55;;;;;;;5.00;2.70;;;;;;;2.61;80.63;97856.42;106794;1277;137637;-77
2022/02/06 10:05:39;;;;;;;5.00;2.60;;;;;;;2.63;80.67;97847.82;107170;1274;24017;-76
2022/02/06 10:08:14;;;;;;;5.90;2.50;;;;;;;2.64;80.63;97853.98;106736;1277;137287;-75
2022/02/06 10:10:55;;;;;;;6.10;2.80;;;;;;;2.64;80.74;97851.71;107018;1277;22584;-76
2022/02/06 10:13:21;;;;;;;4.60;2.20;;;;;;;2.64;80.91;97847.23;107008;1274;138546;-75
2022/02/06 10:15:47;;;;;;;4.30;2.50;;;;;;;2.62;80.89;97832.03;106269;1275;22573;-82
2022/02/06 10:18:15;;;;;;;6.20;2.80;;;;;;;2.59;81.20;97840.63;106409;1277;22614;-77
2022/02/06 10:20:46;;;;;;;7.90;2.80;;;;;;;2.56;81.45;97836.55;106569;1274;137128;-77
2022/02/06 10:23:26;;;;;;;6.20;3.10;;;;;;;2.53;81.65;97837.58;106555;1274;23295;-76
2022/02/06 10:26:01;;;;;;;6.10;2.80;;;;;;;2.47;82.14;97833.95;106487;1277;137392;-75
2022/02/06 10:28:40;;;;;;;5.80;2.80;;;;;;;2.42;82.43;97832.92;107286;1274;22626;-77
2022/02/06 10:31:08;;;;;;;5.30;2.50;;;;;;;2.37;82.72;97825.15;107190;1274;137655;-76
2022/02/06 10:33:48;;;;;;;5.50;2.80;;;;;;;2.34;83.13;97819.83;106339;1274;22570;-78
2022/02/06 10:36:30;;;;;;;4.00;2.60;;;;;;;2.32;83.36;97816.22;106951;1277;22766;-76
2022/02/06 10:39:02;;;;;;;6.10;2.40;;;;;;;2.29;83.84;97809.01;106495;1277;137265;-77
2022/02/06 10:41:29;;;;;;;5.10;2.60;;;;;;;2.30;84.15;97809.16;106345;1275;22587;-76
2022/02/06 10:44:02;;;;;;;4.60;2.90;;;;;;;2.31;84.34;97803.95;106381;1274;138235;-76
2022/02/06 10:46:31;;;;;;;5.80;2.80;;;;;;;2.36;84.53;97794.11;106437;1274;22567;-77
2022/02/06 10:49:02;;;;;;;6.30;2.70;;;;;;;2.42;84.64;97795.46;106095;1276;136974;-76
2022/02/06 10:51:43;;;;;;;7.20;3.30;;;;;;;2.48;84.71;97793.17;106429;1277;23565;-75
2022/02/06 10:54:17;;;;;;;9.00;3.60;;;;;;;2.54;84.50;97788.75;106408;1276;22576;-77
2022/02/06 10:57:10;;;;;;;7.50;3.50;;;;;;;2.60;84.45;97781.50;106061;1274;137316;-77
2022/02/06 10:59:43;;;;;;;6.80;3.10;;;;;;;2.71;84.48;97772.70;106108;1275;26538;-75
2022/02/06 11:02:21;;;;;;;6.90;3.80;;;;;;;2.78;84.42;97764.36;106746;1276;22590;-75
2022/02/06 11:08:01;;;;;;;7.50;3.60;;;;;;;2.95;83.80;97748.13;106919;1274;22572;-75
2022/02/06 11:10:33;;;;;;;6.50;3.30;;;;;;;3.03;83.81;97741.42;107233;1274;22544;-76
2022/02/06 11:13:16;;;;;;;6.80;3.70;;;;;;;3.09;83.52;97736.27;106745;1274;22702;-77
2022/02/06 11:15:45;;;;;;;10.90;3.40;;;;;;;3.15;83.36;97729.74;106292;1277;23365;-77
2022/02/06 11:18:15;;;;;;;6.50;3.00;;;;;;;3.21;83.13;97726.84;106261;1275;22547;-76
2022/02/06 11:21:08;;;;;;;9.60;3.80;;;;;;;3.29;82.87;97720.46;106210;1277;24421;-76
2022/02/06 11:23:37;;;;;;;16.60;5.90;;;;;;;3.45;82.92;97708.60;106302;1274;23045;-75
2022/02/06 11:26:25;;;;;;;6.20;3.60;;;;;;;3.61;82.65;97697.84;106519;1277;22582;-76
2022/02/06 11:29:00;;;;;;;10.00;4.60;;;;;;;3.73;81.97;97693.14;106559;1276;22676;-76
2022/02/06 11:31:28;;;;;;;13.90;6.10;;;;;;;3.81;81.47;97690.14;106025;1277;30712;-75
2022/02/06 11:33:55;;;;;;;9.60;4.30;;;;;;;3.86;80.64;97686.48;106747;1275;22556;-76
2022/02/06 11:43:01;;;;;;;10.70;3.10;;;;;;;3.93;80.44;97684.11;106169;1275;23916;-77
2022/02/06 11:45:32;;;;;;;7.60;4.50;;;;;;;4.24;78.53;97672.98;106646;1275;25347;-75
2022/02/06 11:48:08;;;;;;;8.80;3.40;;;;;;;4.24;78.00;97668.30;107344;1274;22539;-76
2022/02/06 11:50:37;;;;;;;9.80;4.00;;;;;;;4.23;77.87;97668.52;106801;1277;22560;-76
2022/02/06 11:53:06;;;;;;;9.30;4.50;;;;;;;4.18;77.60;97665.67;106953;1276;22578;-76
2022/02/06 11:55:32;;;;;;;8.30;3.00;;;;;;;4.15;77.69;97668.93;107022;1277;22616;-75
2022/02/06 11:58:28;;;;;;;7.20;3.00;;;;;;;4.12;77.29;97663.56;107556;1276;23351;-77
2022/02/06 12:01:17;;;;;;;5.20;2.60;;;;;;;4.10;77.66;97661.02;106491;1274;22745;-77
2022/02/06 12:03:57;;;;;;;5.40;3.10;;;;;;;4.05;77.52;97661.67;106496;1274;22563;-75
2022/02/06 12:06:53;;;;;;;5.50;2.70;;;;;;;3.97;78.20;97664.61;106633;1274;23507;-76
2022/02/06 12:09:23;;;;;;;5.70;2.40;;;;;;;3.88;78.77;97665.17;106725;1274;22864;-78
2022/02/06 12:12:04;;;;;;;7.10;2.40;;;;;;;3.77;79.27;97660.01;106709;1277;22586;-76
2022/02/06 12:14:40;;;;;;;6.00;2.40;;;;;;;3.69;79.62;97658.69;106669;1272;23451;-75
2022/02/06 12:20:08;;;;;;;4.00;2.40;;;;;;;3.49;80.69;97660.00;106446;1274;22642;-75
2022/02/06 12:22:39;;;;;;;6.50;2.80;;;;;;;3.40;81.34;97658.87;106653;1274;22560;-75
2022/02/06 12:25:18;;;;;;;6.60;3.10;;;;;;;3.32;81.81;97657.14;106526;1274;22589;-75
2022/02/06 12:27:46;;;;;;;8.50;3.40;;;;;;;3.27;82.37;97653.92;106253;1274;23029;-75
2022/02/06 12:30:25;;;;;;;7.00;2.90;;;;;;;3.21;82.63;97653.33;107168;1274;22560;-75
2022/02/06 12:32:51;;;;;;;12.40;4.90;;;;;;;3.12;82.94;97641.68;107077;1274;30285;-75
2022/02/06 12:38:05;;;;;;;5.90;3.00;;;;;;;3.00;83.65;97633.48;106362;1274;22558;-75
2022/02/06 12:40:32;;;;;;;4.50;2.90;;;;;;;2.99;84.03;97636.85;106631;1274;24508;-75
2022/02/06 12:43:03;;;;;;;10.40;4.80;;;;;;;2.99;84.29;97633.81;107374;1274;22553;-75
2022/02/06 12:45:32;;;;;;;16.40;7.80;;;;;;;2.98;84.62;97627.38;106886;1274;22806;-75
2022/02/06 12:48:03;;;;;;;10.70;4.90;;;;;;;2.96;84.85;97622.63;106199;1277;22538;-75
2022/02/06 12:50:37;;;;;;;8.60;4.20;;;;;;;2.94;84.96;97617.64;106249;1274;22820;-75
2022/02/06 12:53:05;;;;;;;7.90;3.20;;;;;;;2.94;85.19;97613.61;106009;1274;25362;-75
2022/02/06 12:55:34;;;;;;;5.10;3.00;;;;;;;2.94;85.23;97614.58;106532;1277;23291;-75
2022/02/06 12:58:01;;;;;;;8.00;4.90;;;;;;;2.94;85.32;97614.23;106541;1274;24507;-75
2022/02/06 13:00:40;;;;;;;6.70;4.00;;;;;;;2.95;85.48;97609.86;106380;1277;22605;-75
2022/02/06 13:03:18;;;;;;;;;;;;;;;2.96;85.61;97608.98;106428;1275;22546;-74
2022/02/06 13:06:06;;;;;;;4.20;2.50;;;;;;;2.97;85.48;97600.98;106495;1274;22562;-75
2022/02/06 13:08:38;;;;;;;5.20;2.70;;;;;;;2.98;85.46;97597.04;106663;1276;22657;-75
2022/02/06 13:11:11;;;;;;;6.20;2.80;;;;;;;2.98;85.49;97590.55;107069;1274;25605;-75
2022/02/06 13:13:52;;;;;;;3.50;2.40;;;;;;;2.97;85.23;97580.02;106895;1275;25323;-75
2022/02/06 13:24:10;;;;;;;5.10;3.40;;;;;;;2.97;85.64;97559.65;106330;1274;29539;-75
2022/02/06 13:29:19;;;;;;;8.00;4.00;;;;;;;3.01;85.77;97540.10;106511;1277;24394;-75
2022/02/06 13:32:16;;;;;;;5.60;2.90;;;;;;;3.06;85.68;97532.65;106901;1274;23920;-75
2022/02/06 13:37:27;;;;;;;8.10;4.60;;;;;;;3.15;85.14;97529.83;106554;1274;23207;-75
2022/02/06 13:40:09;;;;;;;7.60;4.50;;;;;;;3.20;85.11;97521.59;106677;1274;22649;-75
2022/02/06 13:42:40;;;;;;;9.00;4.50;;;;;;;3.25;84.97;97521.47;106446;1274;23390;-75
2022/02/06 13:45:12;;;;;;;8.90;3.70;;;;;;;3.27;84.71;97518.84;106119;1277;25508;-75
2022/02/06 13:47:40;;;;;;;5.40;3.40;;;;;;;3.32;84.52;97521.61;106503;1277;22569;-75
2022/02/06 13:50:11;;;;;;;6.70;2.80;;;;;;;3.36;84.13;97520.09;106365;1274;22692;-75
2022/02/06 13:52:45;;;;;;;4.10;2.20;;;;;;;3.39;83.87;97523.09;106403;1274;22574;-75
2022/02/06 13:55:13;;;;;;;8.10;2.60;;;;;;;3.40;83.69;97524.31;106083;1276;31866;-75
2022/02/06 13:57:41;;;;;;;5.60;2.90;;;;;;;3.38;83.33;97518.33;106243;1277;23379;-75
2022/02/06 14:00:13;;;;;;;10.20;5.80;;;;;;;3.36;83.31;97517.02;106204;1274;22541;-75
2022/02/06 14:02:58;;;;;;;6.90;3.30;;;;;;;3.35;83.22;97516.02;106273;1274;24815;-75
2022/02/06 14:05:27;;;;;;;4.30;2.90;;;;;;;3.34;82.56;97509.47;106469;1277;30302;-75
2022/02/06 14:08:08;;;;;;;7.40;2.30;;;;;;;3.32;82.66;97506.41;106223;1277;22547;-75
2022/02/06 14:10:59;;;;;;;4.10;2.60;;;;;;;3.29;82.43;97497.27;106428;1277;23128;-75
2022/02/06 14:13:27;;;;;;;3.90;1.90;;;;;;;3.28;82.52;97486.92;106106;1277;25253;-75
2022/02/06 14:16:10;;;;;;;4.80;3.30;;;;;;;3.28;82.19;97485.67;106701;1276;22544;-76
2022/02/06 14:18:48;;;;;;;3.70;2.40;;;;;;;3.28;81.93;97479.27;106664;1277;22579;-77
2022/02/06 14:21:15;;;;;;;4.10;2.40;;;;;;;3.27;82.04;97484.20;106443;1277;25267;-77
2022/02/06 14:23:42;;;;;;;3.40;2.20;;;;;;;3.27;81.69;97485.43;106452;1275;22713;-75